Time;durP1;ratioP1;P1;durP2;ratioP2;P2;SDS_P1;SDS_P2;PMS_P1;PMS_P2;Temp;Humidity;BMP_temperature;BMP_pressure;BME280_temperature;BME280_humidity;BME280_pressure;Samples;Min_cycle;Max_cycle;Signal;HPM_P1;HPM_P2
2023/12/10 00:02:18;;;;;;;;;;;8.50;99.90;;;;;;4966484;28;19941;-69
2023/12/10 00:04:44;;;;;;;;;;;8.60;99.90;;;;;;4970455;28;19975;-69
2023/12/10 00:07:10;;;;;;;;;;;8.60;99.90;;;;;;4973185;28;20960;-69
2023/12/10 00:09:36;;;;;;;;;;;8.50;99.90;;;;;;4946398;28;19931;-70
2023/12/10 00:12:02;;;;;;;;;;;8.60;99.90;;;;;;4993206;28;19932;-69
2023/12/10 00:14:28;;;;;;;;;;;8.60;99.90;;;;;;4962004;28;20463;-69
2023/12/10 00:16:54;;;;;;;;;;;8.60;99.90;;;;;;4963145;28;20741;-69
2023/12/10 00:19:20;;;;;;;;;;;8.60;99.90;;;;;;4931820;28;19953;-69
2023/12/10 00:21:46;;;;;;;;;;;8.60;99.90;;;;;;4974583;28;19925;-70
2023/12/10 00:24:12;;;;;;;;;;;8.60;99.90;;;;;;4933394;28;20215;-68
2023/12/10 00:26:38;;;;;;;;;;;8.60;99.90;;;;;;4983184;28;20965;-68
2023/12/10 00:29:04;;;;;;;;;;;8.60;99.90;;;;;;4959022;28;19926;-70
2023/12/10 00:31:30;;;;;;;;;;;8.60;99.90;;;;;;4932358;28;19929;-70
2023/12/10 00:33:56;;;;;;;;;;;8.50;99.90;;;;;;4960195;28;19932;-69
2023/12/10 00:36:22;;;;;;;;;;;8.60;99.90;;;;;;4955875;28;19986;-69
2023/12/10 00:38:48;;;;;;;;;;;8.60;99.90;;;;;;4961470;28;20538;-69
2023/12/10 00:41:14;;;;;;;;;;;8.60;99.90;;;;;;4940390;28;19924;-70
2023/12/10 00:43:40;;;;;;;;;;;8.60;99.90;;;;;;4958131;28;20452;-69
2023/12/10 00:46:06;;;;;;;;;;;8.60;99.90;;;;;;4945349;28;20374;-70
2023/12/10 00:48:33;;;;;;;;;;;8.60;99.90;;;;;;4962340;28;19929;-69
2023/12/10 00:50:59;;;;;;;;;;;8.60;99.90;;;;;;4929592;28;20032;-70
2023/12/10 00:53:25;;;;;;;;;;;8.70;99.90;;;;;;4961440;28;20557;-68
2023/12/10 00:55:52;;;;;;;;;;;8.70;99.90;;;;;;4965517;28;20069;-70
2023/12/10 00:58:18;;;;;;;;;;;8.70;99.90;;;;;;4979237;28;19925;-70
2023/12/10 01:00:44;;;;;;;;;;;8.70;99.90;;;;;;4968329;28;19932;-69
2023/12/10 01:03:10;;;;;;;;;;;8.70;99.90;;;;;;4984203;28;19929;-69
2023/12/10 01:05:36;;;;;;;;;;;8.60;99.90;;;;;;4975040;28;20642;-69
2023/12/10 01:08:03;;;;;;;;;;;8.50;99.90;;;;;;4987003;28;19944;-69
2023/12/10 01:10:29;;;;;;;;;;;8.40;99.90;;;;;;4954272;28;19925;-69
2023/12/10 01:12:56;;;;;;;;;;;8.30;99.90;;;;;;4979609;28;20791;-70
2023/12/10 01:15:29;;;;;;;;;;;8.30;99.90;;;;;;4963392;28;19925;-70
2023/12/10 01:18:00;;;;;;;;;;;8.20;99.90;;;;;;4987016;28;19929;-71
2023/12/10 01:20:30;;;;;;;;;;;8.20;99.90;;;;;;4964263;28;21071;-69
2023/12/10 01:22:56;;;;;;;;;;;8.10;99.90;;;;;;4986707;28;19939;-70
2023/12/10 01:25:22;;;;;;;;;;;8.10;99.90;;;;;;4953809;28;19959;-70
2023/12/10 01:27:48;;;;;;;;;;;8.00;99.90;;;;;;4988002;28;20661;-71
2023/12/10 01:30:14;;;;;;;;;;;7.90;99.90;;;;;;4961976;28;19936;-71
2023/12/10 01:32:40;;;;;;;;;;;7.90;99.90;;;;;;4988866;28;20965;-70
2023/12/10 01:35:08;;;;;;;;;;;7.80;99.90;;;;;;4985019;28;19927;-71
2023/12/10 01:37:34;;;;;;;;;;;7.80;99.90;;;;;;4971109;28;20466;-70
2023/12/10 01:40:00;;;;;;;;;;;7.90;99.90;;;;;;4958341;28;19928;-71
2023/12/10 01:42:25;;;;;;;;;;;7.90;99.90;;;;;;4989468;28;19956;-71
2023/12/10 01:44:51;;;;;;;;;;;7.80;99.90;;;;;;4952883;28;19924;-70
2023/12/10 01:47:18;;;;;;;;;;;7.80;99.90;;;;;;4977792;28;19932;-71
2023/12/10 01:49:46;;;;;;;;;;;7.80;99.90;;;;;;4954526;28;19925;-71
2023/12/10 01:52:12;;;;;;;;;;;7.80;99.90;;;;;;4980087;28;19997;-71
2023/12/10 01:54:38;;;;;;;;;;;7.70;99.90;;;;;;4953458;28;19947;-71
2023/12/10 01:57:04;;;;;;;;;;;7.80;99.90;;;;;;4980615;28;20793;-71
2023/12/10 01:59:30;;;;;;;;;;;7.70;99.90;;;;;;4955348;28;20916;-71
2023/12/10 02:01:56;;;;;;;;;;;7.70;99.90;;;;;;4982358;28;20031;-72
2023/12/10 02:04:22;;;;;;;;;;;7.70;99.90;;;;;;4954913;28;20397;-71
2023/12/10 02:06:48;;;;;;;;;;;7.70;99.90;;;;;;4993130;28;19932;-71
2023/12/10 02:09:18;;;;;;;;;;;7.70;99.90;;;;;;4951223;28;19929;-73
2023/12/10 02:11:44;;;;;;;;;;;7.70;99.90;;;;;;4983364;28;19932;-71
2023/12/10 02:14:10;;;;;;;;;;;7.70;99.90;;;;;;4956822;28;21073;-70
2023/12/10 02:16:36;;;;;;;;;;;7.70;99.90;;;;;;4970337;28;19933;-72
2023/12/10 02:19:02;;;;;;;;;;;7.70;99.90;;;;;;4995049;28;19964;-69
2023/12/10 02:21:30;;;;;;;;;;;7.70;99.90;;;;;;4980463;28;20002;-70
2023/12/10 02:24:05;;;;;;;;;;;7.70;99.90;;;;;;4980539;28;19925;-69
2023/12/10 02:26:32;;;;;;;;;;;7.70;99.90;;;;;;4965597;28;20609;-70
2023/12/10 02:28:58;;;;;;;;;;;7.70;99.90;;;;;;4979793;28;19925;-70
2023/12/10 02:31:25;;;;;;;;;;;7.70;99.90;;;;;;4955848;28;19943;-69
2023/12/10 02:33:51;;;;;;;;;;;7.70;99.90;;;;;;4980296;28;19945;-71
2023/12/10 02:36:17;;;;;;;;;;;7.70;99.90;;;;;;4964522;28;19935;-70
2023/12/10 02:38:44;;;;;;;;;;;7.70;99.90;;;;;;4979676;28;20577;-71
2023/12/10 02:41:10;;;;;;;;;;;7.70;99.90;;;;;;4971207;28;19928;-70
2023/12/10 02:43:36;;;;;;;;;;;7.70;99.90;;;;;;4981177;28;19932;-69
2023/12/10 02:46:02;;;;;;;;;;;7.80;99.90;;;;;;4962909;28;19924;-68
2023/12/10 02:48:28;;;;;;;;;;;7.80;99.90;;;;;;4980534;28;20015;-69
2023/12/10 02:50:55;;;;;;;;;;;7.70;99.90;;;;;;4977658;28;19932;-68
2023/12/10 02:53:21;;;;;;;;;;;7.70;99.90;;;;;;4981004;28;19929;-71
2023/12/10 02:55:47;;;;;;;;;;;7.70;99.90;;;;;;4941328;28;19929;-71
2023/12/10 02:58:13;;;;;;;;;;;7.70;99.90;;;;;;4977229;28;19929;-69
2023/12/10 03:00:39;;;;;;;;;;;7.70;99.90;;;;;;4960961;28;19932;-71
2023/12/10 03:03:05;;;;;;;;;;;7.70;99.90;;;;;;4982632;28;19936;-69
2023/12/10 03:05:30;;;;;;;;;;;7.70;99.90;;;;;;4964426;28;20438;-70
2023/12/10 03:07:56;;;;;;;;;;;7.70;99.90;;;;;;4982462;28;20918;-72
2023/12/10 03:10:22;;;;;;;;;;;7.70;99.90;;;;;;4952797;28;19925;-71
2023/12/10 03:12:48;;;;;;;;;;;7.70;99.90;;;;;;4987454;28;21181;-71
2023/12/10 03:15:15;;;;;;;;;;;7.70;99.90;;;;;;4961137;28;20053;-70
2023/12/10 03:17:40;;;;;;;;;;;7.70;99.90;;;;;;4992512;28;19953;-70
2023/12/10 03:20:07;;;;;;;;;;;7.70;99.90;;;;;;4965293;28;20043;-69
2023/12/10 03:22:33;;;;;;;;;;;7.70;99.90;;;;;;4993300;28;19940;-69
2023/12/10 03:24:59;;;;;;;;;;;7.70;99.90;;;;;;4956667;28;19928;-69
2023/12/10 03:27:25;;;;;;;;;;;7.70;99.90;;;;;;4995407;28;20612;-70
2023/12/10 03:29:51;;;;;;;;;;;7.70;99.90;;;;;;4962058;28;19932;-69
2023/12/10 03:32:17;;;;;;;;;;;7.70;99.90;;;;;;4964170;28;19924;-68
2023/12/10 03:34:43;;;;;;;;;;;7.70;99.90;;;;;;4958886;28;19924;-69
2023/12/10 03:37:09;;;;;;;;;;;7.70;99.90;;;;;;4985124;28;19929;-69
2023/12/10 03:39:35;;;;;;;;;;;7.70;99.90;;;;;;4959688;28;19931;-70
2023/12/10 03:42:00;;;;;;;;;;;7.60;99.90;;;;;;4997899;28;19929;-70
2023/12/10 03:44:26;;;;;;;;;;;7.70;99.90;;;;;;4955682;28;19930;-69
2023/12/10 03:46:52;;;;;;;;;;;7.70;99.90;;;;;;4991820;28;20568;-70
2023/12/10 03:49:18;;;;;;;;;;;7.70;99.90;;;;;;4949573;28;20836;-71
2023/12/10 03:51:44;;;;;;;;;;;7.60;99.90;;;;;;4999143;28;19932;-69
2023/12/10 03:54:10;;;;;;;;;;;7.60;99.90;;;;;;4960185;28;20662;-68
2023/12/10 03:56:36;;;;;;;;;;;7.60;99.90;;;;;;4999430;28;19963;-71
2023/12/10 03:59:02;;;;;;;;;;;7.60;99.90;;;;;;4979339;28;21009;-70
2023/12/10 04:01:28;;;;;;;;;;;7.60;99.90;;;;;;4954338;28;19935;-70
2023/12/10 04:03:54;;;;;;;;;;;7.60;99.90;;;;;;4981134;28;20030;-71
2023/12/10 04:06:20;;;;;;;;;;;7.70;99.90;;;;;;4957665;28;19939;-72
2023/12/10 04:08:46;;;;;;;;;;;7.70;99.90;;;;;;4964970;28;21118;-71
2023/12/10 04:11:12;;;;;;;;;;;7.70;99.90;;;;;;4974122;28;20343;-70
2023/12/10 04:13:38;;;;;;;;;;;7.70;99.90;;;;;;4982251;28;19955;-71
2023/12/10 04:16:04;;;;;;;;;;;7.70;99.90;;;;;;4982100;28;19932;-71
2023/12/10 04:18:30;;;;;;;;;;;7.70;99.90;;;;;;4982439;28;19936;-71
2023/12/10 04:20:56;;;;;;;;;;;7.70;99.90;;;;;;4970798;28;19925;-72
2023/12/10 04:23:22;;;;;;;;;;;7.70;99.90;;;;;;4980307;28;20434;-71
2023/12/10 04:25:48;;;;;;;;;;;7.70;99.90;;;;;;4957502;28;19924;-72
2023/12/10 04:28:14;;;;;;;;;;;7.70;99.90;;;;;;4981832;28;20007;-71
2023/12/10 04:30:40;;;;;;;;;;;7.70;99.90;;;;;;4969943;28;20609;-74
2023/12/10 04:33:06;;;;;;;;;;;7.70;99.90;;;;;;4980809;28;19936;-72
2023/12/10 04:35:32;;;;;;;;;;;7.70;99.90;;;;;;4967844;28;19932;-71
2023/12/10 04:37:58;;;;;;;;;;;7.80;99.90;;;;;;4980161;28;20039;-72
2023/12/10 04:40:23;;;;;;;;;;;7.80;99.90;;;;;;4959286;28;19931;-71
2023/12/10 04:42:49;;;;;;;;;;;7.80;99.90;;;;;;4989130;28;20284;-71
2023/12/10 04:45:16;;;;;;;;;;;7.80;99.90;;;;;;4965731;28;20758;-71
2023/12/10 04:47:42;;;;;;;;;;;7.80;99.90;;;;;;4966383;28;19925;-71
2023/12/10 04:50:08;;;;;;;;;;;7.80;99.90;;;;;;4956219;28;19925;-72
2023/12/10 04:52:34;;;;;;;;;;;7.90;99.90;;;;;;4985697;28;20696;-73
2023/12/10 04:55:01;;;;;;;;;;;7.90;99.90;;;;;;4959725;28;19932;-72
2023/12/10 04:57:27;;;;;;;;;;;7.90;99.90;;;;;;4995374;28;19929;-73
2023/12/10 04:59:53;;;;;;;;;;;7.90;99.90;;;;;;4964668;28;19924;-71
2023/12/10 05:02:19;;;;;;;;;;;8.00;99.90;;;;;;5004710;28;19936;-73
2023/12/10 05:04:45;;;;;;;;;;;8.00;99.90;;;;;;4960150;28;20506;-74
2023/12/10 05:07:11;;;;;;;;;;;8.00;99.90;;;;;;4997049;28;19929;-73
2023/12/10 05:09:36;;;;;;;;;;;8.00;99.90;;;;;;4956309;28;19951;-72
2023/12/10 05:12:03;;;;;;;;;;;8.00;99.90;;;;;;4983445;28;20808;-74
2023/12/10 05:14:28;;;;;;;;;;;8.00;99.90;;;;;;4938401;28;19945;-74
2023/12/10 05:16:54;;;;;;;;;;;8.10;99.90;;;;;;4981572;28;19933;-73
2023/12/10 05:19:20;;;;;;;;;;;8.10;99.90;;;;;;4954940;28;19976;-72
2023/12/10 05:21:46;;;;;;;;;;;8.10;99.90;;;;;;5000180;28;19921;-74
2023/12/10 05:24:12;;;;;;;;;;;8.10;99.90;;;;;;4955585;28;19968;-72
2023/12/10 05:26:38;;;;;;;;;;;8.20;99.90;;;;;;4986391;28;20406;-72
2023/12/10 05:29:04;;;;;;;;;;;8.10;99.90;;;;;;4981480;28;19931;-72
2023/12/10 05:31:30;;;;;;;;;;;8.10;99.90;;;;;;4939615;28;21307;-73
2023/12/10 05:33:56;;;;;;;;;;;8.20;99.90;;;;;;4964536;28;20352;-71
2023/12/10 05:36:22;;;;;;;;;;;8.20;99.90;;;;;;4955101;28;19929;-72
2023/12/10 05:38:48;;;;;;;;;;;8.20;99.90;;;;;;4959937;28;19933;-73
2023/12/10 05:41:14;;;;;;;;;;;8.20;99.90;;;;;;4947860;28;19925;-71
2023/12/10 05:43:40;;;;;;;;;;;8.20;99.90;;;;;;4963622;28;19925;-74
2023/12/10 05:46:06;;;;;;;;;;;8.20;99.90;;;;;;4931596;28;19936;-70
2023/12/10 05:48:33;;;;;;;;;;;8.20;99.90;;;;;;4964071;28;19929;-72
2023/12/10 05:50:59;;;;;;;;;;;8.30;99.90;;;;;;4939401;28;19936;-71
2023/12/10 05:53:25;;;;;;;;;;;8.30;99.90;;;;;;4965381;28;21238;-71
2023/12/10 05:55:50;;;;;;;;;;;8.30;99.90;;;;;;4943918;28;19929;-73
2023/12/10 05:58:16;;;;;;;;;;;8.30;99.90;;;;;;4980735;28;20351;-71
2023/12/10 06:00:42;;;;;;;;;;;8.20;99.90;;;;;;4967484;28;20560;-72
2023/12/10 06:03:08;;;;;;;;;;;8.30;99.90;;;;;;4981538;28;20577;-70
2023/12/10 06:05:34;;;;;;;;;;;8.30;99.90;;;;;;4955570;28;20498;-72
2023/12/10 06:08:00;;;;;;;;;;;8.30;99.90;;;;;;4990927;28;20419;-72
2023/12/10 06:10:26;;;;;;;;;;;8.20;99.90;;;;;;4938638;28;19925;-74
2023/12/10 06:12:52;;;;;;;;;;;8.20;99.90;;;;;;4988598;28;19925;-74
2023/12/10 06:15:18;;;;;;;;;;;8.20;99.90;;;;;;4958892;28;20340;-74
2023/12/10 06:17:44;;;;;;;;;;;8.20;99.90;;;;;;4992395;28;19929;-71
2023/12/10 06:20:10;;;;;;;;;;;8.20;99.90;;;;;;4963161;28;19935;-71
2023/12/10 06:22:36;;;;;;;;;;;8.20;99.90;;;;;;4996686;28;20028;-71
2023/12/10 06:25:02;;;;;;;;;;;8.20;99.90;;;;;;4955499;28;20701;-71
2023/12/10 06:27:28;;;;;;;;;;;8.20;99.90;;;;;;4970978;28;20433;-71
2023/12/10 06:29:54;;;;;;;;;;;8.20;99.90;;;;;;4960195;28;20486;-71
2023/12/10 06:32:20;;;;;;;;;;;8.20;99.90;;;;;;4996258;28;20629;-69
2023/12/10 06:34:46;;;;;;;;;;;8.20;99.90;;;;;;4960001;28;19929;-71
2023/12/10 06:37:12;;;;;;;;;;;8.20;99.90;;;;;;4996575;28;19940;-70
2023/12/10 06:39:38;;;;;;;;;;;8.20;99.90;;;;;;4953331;28;19928;-70
2023/12/10 06:42:04;;;;;;;;;;;8.20;99.90;;;;;;4983579;28;20044;-69
2023/12/10 06:44:32;;;;;;;;;;;8.20;99.90;;;;;;4955397;28;19944;-69
2023/12/10 06:46:57;;;;;;;;;;;8.20;99.90;;;;;;4996757;28;19948;-70
2023/12/10 06:49:23;;;;;;;;;;;8.20;99.90;;;;;;4953011;28;20746;-72
2023/12/10 06:51:49;;;;;;;;;;;8.20;99.90;;;;;;4994983;28;19925;-73
2023/12/10 06:54:15;;;;;;;;;;;8.20;99.90;;;;;;4952386;28;19996;-72
2023/12/10 06:56:41;;;;;;;;;;;8.20;99.90;;;;;;5005786;28;19929;-72
2023/12/10 06:59:08;;;;;;;;;;;8.20;99.90;;;;;;4994066;28;19936;-74
2023/12/10 07:01:35;;;;;;;;;;;8.20;99.90;;;;;;4973769;28;19933;-75
2023/12/10 07:04:01;;;;;;;;;;;8.20;99.90;;;;;;4985883;28;20620;-69
2023/12/10 07:06:27;;;;;;;;;;;8.20;99.90;;;;;;4959588;28;19924;-70
2023/12/10 07:08:53;;;;;;;;;;;8.20;99.90;;;;;;4983339;28;19987;-75
2023/12/10 07:11:19;;;;;;;;;;;8.20;99.90;;;;;;4968631;28;20224;-72
2023/12/10 07:13:44;;;;;;;;;;;8.20;99.90;;;;;;4979359;28;20588;-71
2023/12/10 07:16:11;;;;;;;;;;;8.20;99.90;;;;;;4957365;28;20046;-70
2023/12/10 07:18:37;;;;;;;;;;;8.20;99.90;;;;;;5013784;28;19929;-71
2023/12/10 07:21:03;;;;;;;;;;;8.20;99.90;;;;;;4938658;28;20429;-69
2023/12/10 07:23:29;;;;;;;;;;;8.20;99.90;;;;;;4983316;28;19929;-72
2023/12/10 07:25:55;;;;;;;;;;;8.20;99.90;;;;;;4966976;28;20001;-71
2023/12/10 07:28:20;;;;;;;;;;;8.20;99.90;;;;;;4980475;28;21118;-71
2023/12/10 07:30:46;;;;;;;;;;;8.10;99.90;;;;;;4955914;28;19925;-70
2023/12/10 07:33:12;;;;;;;;;;;8.20;99.90;;;;;;4981716;28;19929;-70
2023/12/10 07:35:38;;;;;;;;;;;8.20;99.90;;;;;;4977003;28;20008;-71
2023/12/10 07:38:04;;;;;;;;;;;8.10;99.90;;;;;;4989441;28;19936;-71
2023/12/10 07:40:30;;;;;;;;;;;8.10;99.90;;;;;;4957949;28;19929;-71
2023/12/10 07:42:57;;;;;;;;;;;8.10;99.90;;;;;;4983240;28;20454;-70
2023/12/10 07:45:22;;;;;;;;;;;8.10;99.90;;;;;;4964958;28;20433;-72
2023/12/10 07:47:48;;;;;;;;;;;8.10;99.90;;;;;;4984662;28;19925;-71
2023/12/10 07:50:14;;;;;;;;;;;8.10;99.90;;;;;;4959750;28;19952;-72
2023/12/10 07:52:40;;;;;;;;;;;8.10;99.90;;;;;;4988613;28;20126;-71
2023/12/10 07:55:06;;;;;;;;;;;8.10;99.90;;;;;;4961131;28;19929;-71
2023/12/10 07:57:32;;;;;;;;;;;8.10;99.90;;;;;;4991866;28;19955;-72
2023/12/10 07:59:58;;;;;;;;;;;8.10;99.90;;;;;;4960864;28;19925;-71
2023/12/10 08:02:24;;;;;;;;;;;8.10;99.90;;;;;;4982540;28;19939;-72
2023/12/10 08:04:50;;;;;;;;;;;8.10;99.90;;;;;;4960875;28;19951;-73
2023/12/10 08:07:16;;;;;;;;;;;8.10;99.90;;;;;;4981202;28;21059;-71
2023/12/10 08:09:42;;;;;;;;;;;8.10;99.90;;;;;;4958973;28;20620;-70
2023/12/10 08:12:08;;;;;;;;;;;8.10;99.90;;;;;;4992418;28;19932;-70
2023/12/10 08:14:35;;;;;;;;;;;8.10;99.90;;;;;;4958190;28;19925;-68
2023/12/10 08:17:01;;;;;;;;;;;8.10;99.90;;;;;;4995368;28;19929;-69
2023/12/10 08:19:27;;;;;;;;;;;8.10;99.90;;;;;;4956225;28;20008;-70
2023/12/10 08:21:53;;;;;;;;;;;8.10;99.90;;;;;;5006102;28;20052;-71
2023/12/10 08:24:19;;;;;;;;;;;8.10;99.90;;;;;;4951122;28;19932;-69
2023/12/10 08:26:45;;;;;;;;;;;8.00;99.90;;;;;;5000099;28;19933;-70
2023/12/10 08:29:11;;;;;;;;;;;8.00;99.90;;;;;;4956142;28;20055;-68
2023/12/10 08:31:37;;;;;;;;;;;8.00;99.90;;;;;;4991780;28;20518;-69
2023/12/10 08:34:03;;;;;;;;;;;8.00;99.90;;;;;;4978113;28;19940;-68
2023/12/10 08:36:29;;;;;;;;;;;8.00;99.90;;;;;;4929570;28;19936;-68
2023/12/10 08:38:55;;;;;;;;;;;8.00;99.90;;;;;;4957469;28;20973;-69
2023/12/10 08:41:21;;;;;;;;;;;7.90;99.90;;;;;;4951275;28;19944;-67
2023/12/10 08:43:47;;;;;;;;;;;7.90;99.90;;;;;;4969639;28;19925;-68
2023/12/10 08:46:13;;;;;;;;;;;8.00;99.90;;;;;;4944114;28;20184;-69
2023/12/10 08:48:42;;;;;;;;;;;7.90;99.90;;;;;;4977006;28;19936;-69
2023/12/10 08:51:08;;;;;;;;;;;8.00;99.90;;;;;;4948869;28;20290;-69
2023/12/10 08:53:34;;;;;;;;;;;8.00;99.90;;;;;;4959124;28;19925;-70
2023/12/10 08:56:00;;;;;;;;;;;8.00;99.90;;;;;;4968175;28;19935;-67
2023/12/10 08:58:27;;;;;;;;;;;8.00;99.90;;;;;;4980469;28;19955;-68
2023/12/10 09:00:53;;;;;;;;;;;8.00;99.90;;;;;;4968612;28;19929;-67
2023/12/10 09:03:19;;;;;;;;;;;8.00;99.90;;;;;;4983180;28;21054;-67
2023/12/10 09:05:45;;;;;;;;;;;8.00;99.90;;;;;;4954378;28;19925;-69
2023/12/10 09:08:11;;;;;;;;;;;8.00;99.90;;;;;;4983250;28;19929;-68
2023/12/10 09:10:37;;;;;;;;;;;8.00;99.90;;;;;;4968841;28;21121;-68
2023/12/10 09:13:02;;;;;;;;;;;8.00;99.90;;;;;;4985479;28;19932;-68
2023/12/10 09:15:29;;;;;;;;;;;8.00;99.90;;;;;;4959503;28;19928;-68
2023/12/10 09:17:55;;;;;;;;;;;8.10;99.90;;;;;;4978259;28;19929;-67
2023/12/10 09:20:21;;;;;;;;;;;8.10;99.90;;;;;;4960690;28;20617;-68
2023/12/10 09:22:47;;;;;;;;;;;8.10;99.90;;;;;;4986569;28;19929;-68
2023/12/10 09:25:13;;;;;;;;;;;8.10;99.90;;;;;;4964081;28;20979;-69
2023/12/10 09:27:39;;;;;;;;;;;8.00;99.90;;;;;;4989941;28;19924;-68
2023/12/10 09:30:05;;;;;;;;;;;8.00;99.90;;;;;;4960404;28;19925;-67
2023/12/10 09:32:31;;;;;;;;;;;8.00;99.90;;;;;;4977982;28;19929;-67
2023/12/10 09:34:57;;;;;;;;;;;8.00;99.90;;;;;;4957750;28;19925;-67
2023/12/10 09:37:23;;;;;;;;;;;8.10;99.90;;;;;;4990800;28;19932;-68
2023/12/10 09:39:49;;;;;;;;;;;8.00;99.90;;;;;;4959484;28;20035;-67
2023/12/10 09:42:15;;;;;;;;;;;8.10;99.90;;;;;;5001185;28;19925;-68
2023/12/10 09:44:41;;;;;;;;;;;8.10;99.90;;;;;;4954207;28;19954;-68
2023/12/10 09:47:08;;;;;;;;;;;8.10;99.90;;;;;;4993290;28;19936;-68
2023/12/10 09:49:37;;;;;;;;;;;8.20;99.90;;;;;;4953000;28;19931;-68
2023/12/10 09:52:07;;;;;;;;;;;8.20;99.90;;;;;;4996132;28;19948;-67
2023/12/10 09:54:33;;;;;;;;;;;8.20;99.90;;;;;;4950704;28;20953;-67
2023/12/10 09:56:59;;;;;;;;;;;8.20;99.90;;;;;;4976893;28;20027;-68
2023/12/10 09:59:25;;;;;;;;;;;8.20;99.90;;;;;;4951087;28;20596;-69
2023/12/10 10:01:53;;;;;;;;;;;8.20;99.90;;;;;;4996211;28;19929;-68
2023/12/10 10:04:19;;;;;;;;;;;8.20;99.90;;;;;;4950918;28;19938;-71
2023/12/10 10:06:45;;;;;;;;;;;8.20;99.90;;;;;;4996317;28;19924;-69
2023/12/10 10:09:11;;;;;;;;;;;8.20;99.90;;;;;;4955816;28;19936;-70
2023/12/10 10:11:37;;;;;;;;;;;8.20;99.90;;;;;;4997219;28;20358;-71
2023/12/10 10:14:04;;;;;;;;;;;8.20;99.90;;;;;;4980083;28;19925;-71
2023/12/10 10:16:33;;;;;;;;;;;8.20;99.90;;;;;;4945820;28;19937;-72
2023/12/10 10:18:59;;;;;;;;;;;8.20;99.90;;;;;;4957953;28;19936;-70
2023/12/10 10:21:25;;;;;;;;;;;8.20;99.90;;;;;;4966552;28;19940;-70
2023/12/10 10:23:51;;;;;;;;;;;8.20;99.90;;;;;;4979433;28;19940;-71
2023/12/10 10:26:17;;;;;;;;;;;8.20;99.90;;;;;;4970739;28;19936;-69
2023/12/10 10:28:45;;;;;;;;;;;8.20;99.90;;;;;;4979633;28;19925;-70
2023/12/10 10:31:11;;;;;;;;;;;8.20;99.90;;;;;;4969790;28;19928;-71
2023/12/10 10:33:37;;;;;;;;;;;8.30;99.90;;;;;;4976380;28;19932;-68
2023/12/10 10:36:03;;;;;;;;;;;8.30;99.90;;;;;;4947052;28;19925;-68
2023/12/10 10:38:29;;;;;;;;;;;8.30;99.90;;;;;;4977906;28;19943;-69
2023/12/10 10:41:01;;;;;;;;;;;8.30;99.90;;;;;;4974120;28;19925;-69
2023/12/10 10:43:27;;;;;;;;;;;8.30;99.90;;;;;;4958601;28;19925;-67
2023/12/10 10:45:53;;;;;;;;;;;8.30;99.90;;;;;;4964078;28;20005;-69
2023/12/10 10:48:25;;;;;;;;;;;8.30;99.90;;;;;;4979014;28;19925;-70
2023/12/10 10:50:52;;;;;;;;;;;8.30;99.90;;;;;;4953284;28;19929;-66
2023/12/10 10:53:18;;;;;;;;;;;8.40;99.90;;;;;;4961851;28;19925;-68
2023/12/10 10:55:48;;;;;;;;;;;8.40;99.90;;;;;;4962157;28;20398;-68
2023/12/10 10:58:24;;;;;;;;;;;8.40;99.90;;;;;;4976350;28;19929;-67
2023/12/10 11:00:51;;;;;;;;;;;8.40;99.90;;;;;;4965783;28;19928;-68
2023/12/10 11:03:17;;;;;;;;;;;8.40;99.90;;;;;;4980938;28;20530;-68
2023/12/10 11:05:43;;;;;;;;;;;8.50;99.90;;;;;;4964520;28;19935;-68
2023/12/10 11:08:10;;;;;;;;;;;8.50;99.90;;;;;;4979650;28;20551;-69
2023/12/10 11:10:40;;;;;;;;;;;8.50;99.90;;;;;;4963473;28;19931;-69
2023/12/10 11:13:05;;;;;;;;;;;8.60;99.90;;;;;;4983070;28;19929;-69
2023/12/10 11:15:31;;;;;;;;;;;8.60;99.90;;;;;;4946722;28;19936;-69
2023/12/10 11:18:02;;;;;;;;;;;8.50;99.90;;;;;;4976594;28;20372;-69
2023/12/10 11:20:44;;;;;;;;;;;8.60;99.90;;;;;;4954123;28;21026;-67
2023/12/10 11:23:11;;;;;;;;;;;8.50;99.90;;;;;;4979201;28;20542;-67
2023/12/10 11:25:38;;;;;;;;;;;8.60;99.90;;;;;;4968419;28;21173;-67
2023/12/10 11:28:08;;;;;;;;;;;8.60;99.90;;;;;;4969762;28;19925;-69
2023/12/10 11:30:34;;;;;;;;;;;8.50;99.90;;;;;;4959619;28;19968;-70
2023/12/10 11:33:00;;;;;;;;;;;8.60;99.90;;;;;;4981953;28;20431;-68
2023/12/10 11:35:26;;;;;;;;;;;8.50;99.90;;;;;;4949844;28;20470;-68
2023/12/10 11:37:52;;;;;;;;;;;8.50;99.90;;;;;;4980838;28;20710;-68
2023/12/10 11:40:18;;;;;;;;;;;8.60;99.90;;;;;;4952617;28;19935;-69
2023/12/10 11:42:44;;;;;;;;;;;8.60;99.90;;;;;;4990320;28;19925;-67
2023/12/10 11:45:13;;;;;;;;;;;8.70;99.90;;;;;;4955302;28;19929;-68
2023/12/10 11:47:45;;;;;;;;;;;8.80;99.90;;;;;;4981179;28;19929;-68
2023/12/10 11:50:11;;;;;;;;;;;8.80;99.90;;;;;;4965380;28;19939;-67
2023/12/10 11:52:38;;;;;;;;;;;8.70;99.90;;;;;;4985935;28;20992;-68
2023/12/10 11:55:07;;;;;;;;;;;8.70;99.90;;;;;;4962176;28;19929;-67
2023/12/10 11:57:33;;;;;;;;;;;8.70;99.90;;;;;;4989382;28;19932;-67
2023/12/10 12:00:04;;;;;;;;;;;8.60;99.90;;;;;;4962695;28;19933;-70
2023/12/10 12:02:30;;;;;;;;;;;8.60;99.90;;;;;;4985072;28;20225;-70
2023/12/10 12:04:56;;;;;;;;;;;8.60;99.90;;;;;;4958040;28;20876;-70
2023/12/10 12:07:26;;;;;;;;;;;8.60;99.90;;;;;;4978528;28;19936;-71
2023/12/10 12:09:52;;;;;;;;;;;8.60;99.90;;;;;;4955559;28;19929;-71
2023/12/10 12:12:19;;;;;;;;;;;8.60;99.90;;;;;;4980327;28;19925;-70
2023/12/10 12:14:45;;;;;;;;;;;8.50;99.90;;;;;;4955086;28;19932;-71
2023/12/10 12:17:12;;;;;;;;;;;8.50;99.90;;;;;;4979055;28;19925;-71
2023/12/10 12:19:38;;;;;;;;;;;8.50;99.90;;;;;;4967718;28;19928;-71
2023/12/10 12:22:04;;;;;;;;;;;8.50;99.90;;;;;;4991686;28;19929;-70
2023/12/10 12:24:30;;;;;;;;;;;8.50;99.90;;;;;;4949108;28;20474;-67
2023/12/10 12:26:56;;;;;;;;;;;8.60;99.90;;;;;;4980422;28;20928;-69
2023/12/10 12:29:22;;;;;;;;;;;8.50;99.90;;;;;;4951252;28;20536;-68
2023/12/10 12:31:48;;;;;;;;;;;8.60;99.90;;;;;;4995177;28;19925;-68
2023/12/10 12:34:14;;;;;;;;;;;8.60;99.90;;;;;;4948821;28;19925;-67
2023/12/10 12:36:40;;;;;;;;;;;8.60;99.90;;;;;;4983168;28;19925;-68
2023/12/10 12:39:06;;;;;;;;;;;8.60;99.90;;;;;;4974563;28;20715;-68
2023/12/10 12:41:32;;;;;;;;;;;8.60;99.90;;;;;;4958197;28;20808;-67
2023/12/10 12:43:58;;;;;;;;;;;8.60;99.90;;;;;;4980182;28;19936;-69
2023/12/10 12:46:24;;;;;;;;;;;8.60;99.90;;;;;;4966590;28;19929;-68
2023/12/10 12:48:50;;;;;;;;;;;8.70;99.90;;;;;;4977257;28;19951;-68
2023/12/10 12:51:16;;;;;;;;;;;8.70;99.90;;;;;;4962893;28;19925;-67
2023/12/10 12:53:42;;;;;;;;;;;8.70;99.90;;;;;;4980022;28;19940;-69
2023/12/10 12:56:08;;;;;;;;;;;8.80;99.90;;;;;;4951744;28;19983;-68
2023/12/10 12:58:34;;;;;;;;;;;8.80;99.90;;;;;;4976833;28;19936;-67
2023/12/10 13:01:00;;;;;;;;;;;8.80;99.90;;;;;;4968082;28;20675;-68
2023/12/10 13:03:26;;;;;;;;;;;8.80;99.90;;;;;;4977170;28;19932;-67
2023/12/10 13:05:52;;;;;;;;;;;8.80;99.90;;;;;;4963668;28;19932;-67
2023/12/10 13:08:18;;;;;;;;;;;8.80;99.90;;;;;;4979644;28;21345;-68
2023/12/10 13:10:44;;;;;;;;;;;8.80;99.90;;;;;;4963752;28;21044;-68
2023/12/10 13:13:10;;;;;;;;;;;8.80;99.90;;;;;;4983358;28;19936;-68
2023/12/10 13:15:36;;;;;;;;;;;8.80;99.90;;;;;;4957098;28;21193;-68
2023/12/10 13:18:02;;;;;;;;;;;8.80;99.90;;;;;;4975787;28;19936;-67
2023/12/10 13:20:28;;;;;;;;;;;8.80;99.90;;;;;;4959845;28;19940;-68
2023/12/10 13:22:54;;;;;;;;;;;8.80;99.90;;;;;;4963850;28;19925;-68
2023/12/10 13:25:20;;;;;;;;;;;8.80;99.90;;;;;;4948320;28;20473;-66
2023/12/10 13:27:47;;;;;;;;;;;8.80;99.90;;;;;;4982736;28;19929;-67
2023/12/10 13:30:13;;;;;;;;;;;8.80;99.90;;;;;;4965777;28;20051;-67
2023/12/10 13:32:39;;;;;;;;;;;8.80;99.90;;;;;;4967965;28;21059;-68
2023/12/10 13:35:07;;;;;;;;;;;8.80;99.90;;;;;;4957726;28;19932;-67
2023/12/10 13:37:33;;;;;;;;;;;8.80;99.90;;;;;;4986474;28;19936;-66
2023/12/10 13:39:59;;;;;;;;;;;8.70;99.90;;;;;;4963702;28;20579;-68
2023/12/10 13:42:25;;;;;;;;;;;8.70;99.90;;;;;;4994640;28;20229;-68
2023/12/10 13:44:51;;;;;;;;;;;8.70;99.90;;;;;;4955978;28;20219;-69
2023/12/10 13:47:17;;;;;;;;;;;8.60;99.90;;;;;;4987333;28;20379;-68
2023/12/10 13:49:43;;;;;;;;;;;8.60;99.90;;;;;;4953248;28;19925;-67
2023/12/10 13:52:09;;;;;;;;;;;8.60;99.90;;;;;;4986494;28;20088;-67
2023/12/10 13:54:35;;;;;;;;;;;8.60;99.90;;;;;;4949192;28;20433;-67
2023/12/10 13:57:01;;;;;;;;;;;8.60;99.90;;;;;;4974940;28;19925;-67
2023/12/10 13:59:28;;;;;;;;;;;8.50;99.90;;;;;;4951531;28;20058;-69
2023/12/10 14:01:54;;;;;;;;;;;8.50;99.90;;;;;;4994878;28;19925;-67
2023/12/10 14:04:20;;;;;;;;;;;8.50;99.90;;;;;;4950188;28;19925;-68
2023/12/10 14:06:46;;;;;;;;;;;8.50;99.90;;;;;;4979204;28;19932;-67
2023/12/10 14:09:14;;;;;;;;;;;8.50;99.90;;;;;;4951073;28;19936;-68
2023/12/10 14:11:40;;;;;;;;;;;8.50;99.90;;;;;;4992537;28;19928;-68
2023/12/10 14:14:06;;;;;;;;;;;8.50;99.90;;;;;;4970113;28;19925;-67
2023/12/10 14:16:33;;;;;;;;;;;8.50;99.90;;;;;;4939901;28;19936;-68
2023/12/10 14:18:59;;;;;;;;;;;8.50;99.90;;;;;;4974129;28;19940;-69
2023/12/10 14:21:27;;;;;;;;;;;8.50;99.90;;;;;;4958122;28;19984;-68
2023/12/10 14:23:53;;;;;;;;;;;8.40;99.90;;;;;;4986472;28;19929;-68
2023/12/10 14:26:19;;;;;;;;;;;8.50;99.90;;;;;;4963866;28;19943;-67